sensor_id;sensor_type;location;lat;lon;timestamp;P1;durP1;ratioP1;P2;durP2;ratioP2
42246;SDS011;27913;42.722;23.268;2024-01-06T00:01:10;44.45;;;17.10;;
42246;SDS011;27913;42.722;23.268;2024-01-06T00:03:37;34.72;;;16.20;;
42246;SDS011;27913;42.722;23.268;2024-01-06T00:06:03;41.15;;;16.42;;
42246;SDS011;27913;42.722;23.268;2024-01-06T00:08:28;36.90;;;16.95;;
42246;SDS011;27913;42.722;23.268;2024-01-06T00:10:54;47.88;;;20.33;;
42246;SDS011;27913;42.722;23.268;2024-01-06T00:13:20;55.42;;;22.35;;
42246;SDS011;27913;42.722;23.268;2024-01-06T00:15:45;65.40;;;27.35;;
42246;SDS011;27913;42.722;23.268;2024-01-06T00:18:11;51.90;;;22.83;;
42246;SDS011;27913;42.722;23.268;2024-01-06T00:20:37;48.58;;;19.77;;
42246;SDS011;27913;42.722;23.268;2024-01-06T00:23:03;71.22;;;26.00;;
42246;SDS011;27913;42.722;23.268;2024-01-06T00:25:28;66.55;;;27.52;;
42246;SDS011;27913;42.722;23.268;2024-01-06T00:27:54;50.55;;;21.23;;
42246;SDS011;27913;42.722;23.268;2024-01-06T00:30:20;40.88;;;17.92;;
42246;SDS011;27913;42.722;23.268;2024-01-06T00:32:45;52.60;;;22.88;;
42246;SDS011;27913;42.722;23.268;2024-01-06T00:35:11;50.67;;;18.77;;
42246;SDS011;27913;42.722;23.268;2024-01-06T00:37:37;46.30;;;19.25;;
42246;SDS011;27913;42.722;23.268;2024-01-06T00:40:02;40.92;;;16.92;;
42246;SDS011;27913;42.722;23.268;2024-01-06T00:42:29;49.00;;;21.20;;
42246;SDS011;27913;42.722;23.268;2024-01-06T00:44:55;42.95;;;19.70;;
42246;SDS011;27913;42.722;23.268;2024-01-06T00:47:20;44.65;;;18.52;;
42246;SDS011;27913;42.722;23.268;2024-01-06T00:49:49;41.35;;;18.50;;
42246;SDS011;27913;42.722;23.268;2024-01-06T00:52:14;48.47;;;19.33;;
42246;SDS011;27913;42.722;23.268;2024-01-06T00:54:40;45.33;;;19.17;;
42246;SDS011;27913;42.722;23.268;2024-01-06T00:57:06;47.97;;;18.85;;
42246;SDS011;27913;42.722;23.268;2024-01-06T00:59:31;42.30;;;16.67;;
42246;SDS011;27913;42.722;23.268;2024-01-06T01:04:32;40.70;;;17.52;;
42246;SDS011;27913;42.722;23.268;2024-01-06T01:06:58;35.63;;;14.55;;
42246;SDS011;27913;42.722;23.268;2024-01-06T01:09:23;38.72;;;16.27;;
42246;SDS011;27913;42.722;23.268;2024-01-06T01:11:49;35.15;;;15.68;;
42246;SDS011;27913;42.722;23.268;2024-01-06T01:14:14;42.25;;;17.88;;
42246;SDS011;27913;42.722;23.268;2024-01-06T01:16:40;39.80;;;15.82;;
42246;SDS011;27913;42.722;23.268;2024-01-06T01:19:05;43.67;;;16.40;;
42246;SDS011;27913;42.722;23.268;2024-01-06T01:21:31;39.35;;;16.02;;
42246;SDS011;27913;42.722;23.268;2024-01-06T01:23:57;32.65;;;15.02;;
42246;SDS011;27913;42.722;23.268;2024-01-06T01:26:22;33.97;;;14.30;;
42246;SDS011;27913;42.722;23.268;2024-01-06T01:28:48;38.17;;;14.13;;
42246;SDS011;27913;42.722;23.268;2024-01-06T01:31:13;35.05;;;13.20;;
42246;SDS011;27913;42.722;23.268;2024-01-06T01:33:39;25.80;;;11.52;;
42246;SDS011;27913;42.722;23.268;2024-01-06T01:36:05;34.75;;;14.63;;
42246;SDS011;27913;42.722;23.268;2024-01-06T01:38:30;28.88;;;13.15;;
42246;SDS011;27913;42.722;23.268;2024-01-06T01:40:56;22.67;;;10.77;;
42246;SDS011;27913;42.722;23.268;2024-01-06T01:43:21;21.00;;;10.48;;
42246;SDS011;27913;42.722;23.268;2024-01-06T01:45:50;22.85;;;9.27;;
42246;SDS011;27913;42.722;23.268;2024-01-06T01:48:19;24.42;;;8.73;;
42246;SDS011;27913;42.722;23.268;2024-01-06T01:50:46;20.73;;;9.88;;
42246;SDS011;27913;42.722;23.268;2024-01-06T01:53:12;24.98;;;10.30;;
42246;SDS011;27913;42.722;23.268;2024-01-06T01:55:38;21.13;;;9.90;;
42246;SDS011;27913;42.722;23.268;2024-01-06T01:58:06;26.90;;;10.95;;
42246;SDS011;27913;42.722;23.268;2024-01-06T02:00:32;28.42;;;10.93;;
42246;SDS011;27913;42.722;23.268;2024-01-06T02:02:58;24.65;;;10.85;;
42246;SDS011;27913;42.722;23.268;2024-01-06T02:05:25;28.30;;;11.55;;
42246;SDS011;27913;42.722;23.268;2024-01-06T02:07:50;29.77;;;10.40;;
42246;SDS011;27913;42.722;23.268;2024-01-06T02:10:17;25.48;;;10.45;;
42246;SDS011;27913;42.722;23.268;2024-01-06T02:12:43;28.17;;;12.48;;
42246;SDS011;27913;42.722;23.268;2024-01-06T02:15:09;32.30;;;12.80;;
42246;SDS011;27913;42.722;23.268;2024-01-06T02:17:34;27.75;;;12.32;;
42246;SDS011;27913;42.722;23.268;2024-01-06T02:20:00;29.95;;;12.85;;
42246;SDS011;27913;42.722;23.268;2024-01-06T02:22:26;33.38;;;13.93;;
42246;SDS011;27913;42.722;23.268;2024-01-06T02:24:51;33.33;;;12.90;;
42246;SDS011;27913;42.722;23.268;2024-01-06T02:27:17;33.03;;;14.02;;
42246;SDS011;27913;42.722;23.268;2024-01-06T02:29:42;30.48;;;13.80;;
42246;SDS011;27913;42.722;23.268;2024-01-06T02:32:08;32.13;;;14.02;;
42246;SDS011;27913;42.722;23.268;2024-01-06T02:34:33;30.38;;;13.48;;
42246;SDS011;27913;42.722;23.268;2024-01-06T02:36:59;30.45;;;13.23;;
42246;SDS011;27913;42.722;23.268;2024-01-06T02:39:25;30.45;;;13.65;;
42246;SDS011;27913;42.722;23.268;2024-01-06T02:41:50;39.42;;;14.75;;
42246;SDS011;27913;42.722;23.268;2024-01-06T02:44:16;34.50;;;13.98;;
42246;SDS011;27913;42.722;23.268;2024-01-06T02:46:42;28.27;;;13.55;;
42246;SDS011;27913;42.722;23.268;2024-01-06T02:49:07;27.45;;;12.27;;
42246;SDS011;27913;42.722;23.268;2024-01-06T02:51:33;28.90;;;13.25;;
42246;SDS011;27913;42.722;23.268;2024-01-06T02:53:59;36.58;;;14.25;;
42246;SDS011;27913;42.722;23.268;2024-01-06T02:56:24;30.23;;;14.00;;
42246;SDS011;27913;42.722;23.268;2024-01-06T02:58:50;33.97;;;14.85;;
42246;SDS011;27913;42.722;23.268;2024-01-06T03:01:16;31.63;;;13.30;;
42246;SDS011;27913;42.722;23.268;2024-01-06T03:03:42;36.88;;;14.40;;
42246;SDS011;27913;42.722;23.268;2024-01-06T03:06:08;31.45;;;14.23;;
42246;SDS011;27913;42.722;23.268;2024-01-06T03:08:34;32.58;;;15.30;;
42246;SDS011;27913;42.722;23.268;2024-01-06T03:11:00;32.42;;;14.63;;
42246;SDS011;27913;42.722;23.268;2024-01-06T03:13:27;32.85;;;14.82;;
42246;SDS011;27913;42.722;23.268;2024-01-06T03:15:52;31.73;;;14.27;;
42246;SDS011;27913;42.722;23.268;2024-01-06T03:18:18;30.55;;;13.77;;
42246;SDS011;27913;42.722;23.268;2024-01-06T03:20:43;35.92;;;14.90;;
42246;SDS011;27913;42.722;23.268;2024-01-06T03:23:09;32.72;;;15.15;;
42246;SDS011;27913;42.722;23.268;2024-01-06T03:25:34;30.17;;;14.32;;
42246;SDS011;27913;42.722;23.268;2024-01-06T03:28:00;38.60;;;14.60;;
42246;SDS011;27913;42.722;23.268;2024-01-06T03:30:26;36.22;;;14.40;;
42246;SDS011;27913;42.722;23.268;2024-01-06T03:32:51;34.30;;;14.88;;
42246;SDS011;27913;42.722;23.268;2024-01-06T03:35:17;34.97;;;15.32;;
42246;SDS011;27913;42.722;23.268;2024-01-06T03:37:43;33.42;;;13.95;;
42246;SDS011;27913;42.722;23.268;2024-01-06T03:40:08;31.13;;;12.73;;
42246;SDS011;27913;42.722;23.268;2024-01-06T03:42:34;27.33;;;12.05;;
42246;SDS011;27913;42.722;23.268;2024-01-06T03:45:01;27.75;;;13.23;;
42246;SDS011;27913;42.722;23.268;2024-01-06T03:47:27;26.02;;;12.52;;
42246;SDS011;27913;42.722;23.268;2024-01-06T03:49:53;27.20;;;11.52;;
42246;SDS011;27913;42.722;23.268;2024-01-06T03:52:18;28.13;;;12.88;;
42246;SDS011;27913;42.722;23.268;2024-01-06T03:54:44;34.88;;;15.23;;
42246;SDS011;27913;42.722;23.268;2024-01-06T03:57:10;32.00;;;13.85;;
42246;SDS011;27913;42.722;23.268;2024-01-06T03:59:35;38.90;;;16.73;;
42246;SDS011;27913;42.722;23.268;2024-01-06T04:02:01;37.70;;;17.77;;
42246;SDS011;27913;42.722;23.268;2024-01-06T04:04:27;37.28;;;16.67;;
42246;SDS011;27913;42.722;23.268;2024-01-06T04:06:52;40.25;;;18.30;;
42246;SDS011;27913;42.722;23.268;2024-01-06T04:09:18;46.45;;;19.92;;
42246;SDS011;27913;42.722;23.268;2024-01-06T04:11:44;51.15;;;19.38;;
42246;SDS011;27913;42.722;23.268;2024-01-06T04:14:09;41.30;;;16.85;;
42246;SDS011;27913;42.722;23.268;2024-01-06T04:16:35;40.25;;;18.58;;
42246;SDS011;27913;42.722;23.268;2024-01-06T04:19:01;35.65;;;15.63;;
42246;SDS011;27913;42.722;23.268;2024-01-06T04:21:26;31.35;;;13.20;;
42246;SDS011;27913;42.722;23.268;2024-01-06T04:23:52;35.53;;;15.02;;
42246;SDS011;27913;42.722;23.268;2024-01-06T04:26:17;28.92;;;13.18;;
42246;SDS011;27913;42.722;23.268;2024-01-06T04:28:43;39.65;;;15.50;;
42246;SDS011;27913;42.722;23.268;2024-01-06T04:31:08;46.67;;;18.52;;
42246;SDS011;27913;42.722;23.268;2024-01-06T04:33:34;48.00;;;19.80;;
42246;SDS011;27913;42.722;23.268;2024-01-06T04:36:01;39.63;;;16.65;;
42246;SDS011;27913;42.722;23.268;2024-01-06T04:38:27;29.65;;;12.77;;
42246;SDS011;27913;42.722;23.268;2024-01-06T04:40:52;32.60;;;11.80;;
42246;SDS011;27913;42.722;23.268;2024-01-06T04:43:18;31.98;;;11.75;;
42246;SDS011;27913;42.722;23.268;2024-01-06T04:45:44;34.83;;;12.73;;
42246;SDS011;27913;42.722;23.268;2024-01-06T04:48:10;23.63;;;10.45;;
42246;SDS011;27913;42.722;23.268;2024-01-06T04:50:35;25.50;;;11.82;;
42246;SDS011;27913;42.722;23.268;2024-01-06T04:53:01;26.27;;;12.02;;
42246;SDS011;27913;42.722;23.268;2024-01-06T04:55:27;31.70;;;13.55;;
42246;SDS011;27913;42.722;23.268;2024-01-06T04:57:53;36.95;;;14.18;;
42246;SDS011;27913;42.722;23.268;2024-01-06T05:00:19;27.00;;;10.90;;
42246;SDS011;27913;42.722;23.268;2024-01-06T05:02:45;29.02;;;10.77;;
42246;SDS011;27913;42.722;23.268;2024-01-06T05:05:10;24.30;;;10.90;;
42246;SDS011;27913;42.722;23.268;2024-01-06T05:07:36;24.52;;;10.90;;
42246;SDS011;27913;42.722;23.268;2024-01-06T05:10:02;28.60;;;10.65;;
42246;SDS011;27913;42.722;23.268;2024-01-06T05:12:27;27.30;;;9.25;;
42246;SDS011;27913;42.722;23.268;2024-01-06T05:14:53;26.88;;;10.20;;
42246;SDS011;27913;42.722;23.268;2024-01-06T05:17:19;23.38;;;9.27;;
42246;SDS011;27913;42.722;23.268;2024-01-06T05:19:44;29.25;;;10.80;;
42246;SDS011;27913;42.722;23.268;2024-01-06T05:22:10;25.60;;;10.52;;
42246;SDS011;27913;42.722;23.268;2024-01-06T05:24:36;30.25;;;12.45;;
42246;SDS011;27913;42.722;23.268;2024-01-06T05:27:02;28.20;;;12.65;;
42246;SDS011;27913;42.722;23.268;2024-01-06T05:29:27;29.05;;;12.57;;
42246;SDS011;27913;42.722;23.268;2024-01-06T05:31:53;29.00;;;12.73;;
42246;SDS011;27913;42.722;23.268;2024-01-06T05:34:18;30.58;;;13.57;;
42246;SDS011;27913;42.722;23.268;2024-01-06T05:36:44;27.38;;;11.98;;
42246;SDS011;27913;42.722;23.268;2024-01-06T05:39:10;29.27;;;12.35;;
42246;SDS011;27913;42.722;23.268;2024-01-06T05:41:39;28.00;;;13.02;;
42246;SDS011;27913;42.722;23.268;2024-01-06T05:44:05;26.95;;;11.48;;
42246;SDS011;27913;42.722;23.268;2024-01-06T05:46:30;35.22;;;12.23;;
42246;SDS011;27913;42.722;23.268;2024-01-06T05:48:56;21.63;;;9.63;;
42246;SDS011;27913;42.722;23.268;2024-01-06T05:51:23;19.15;;;8.63;;
42246;SDS011;27913;42.722;23.268;2024-01-06T05:53:48;21.67;;;9.77;;
42246;SDS011;27913;42.722;23.268;2024-01-06T05:56:23;24.67;;;9.90;;
42246;SDS011;27913;42.722;23.268;2024-01-06T05:58:50;25.80;;;9.98;;
42246;SDS011;27913;42.722;23.268;2024-01-06T06:01:15;26.55;;;10.80;;
42246;SDS011;27913;42.722;23.268;2024-01-06T06:03:41;24.92;;;9.18;;
42246;SDS011;27913;42.722;23.268;2024-01-06T06:06:08;26.45;;;12.05;;
42246;SDS011;27913;42.722;23.268;2024-01-06T06:08:33;27.77;;;10.80;;
42246;SDS011;27913;42.722;23.268;2024-01-06T06:10:59;30.58;;;12.73;;
42246;SDS011;27913;42.722;23.268;2024-01-06T06:13:29;31.80;;;13.77;;
42246;SDS011;27913;42.722;23.268;2024-01-06T06:15:55;34.40;;;11.38;;
42246;SDS011;27913;42.722;23.268;2024-01-06T06:18:20;25.20;;;11.57;;
42246;SDS011;27913;42.722;23.268;2024-01-06T06:20:46;37.28;;;14.38;;
42246;SDS011;27913;42.722;23.268;2024-01-06T06:23:12;35.13;;;15.90;;
42246;SDS011;27913;42.722;23.268;2024-01-06T06:25:38;56.75;;;23.13;;
42246;SDS011;27913;42.722;23.268;2024-01-06T06:28:04;57.35;;;22.70;;
42246;SDS011;27913;42.722;23.268;2024-01-06T06:30:30;49.05;;;18.52;;
42246;SDS011;27913;42.722;23.268;2024-01-06T06:32:55;48.50;;;18.27;;
42246;SDS011;27913;42.722;23.268;2024-01-06T06:35:22;43.97;;;19.83;;
42246;SDS011;27913;42.722;23.268;2024-01-06T06:37:49;39.13;;;18.15;;
42246;SDS011;27913;42.722;23.268;2024-01-06T06:40:14;36.67;;;18.05;;
42246;SDS011;27913;42.722;23.268;2024-01-06T06:42:40;51.80;;;21.00;;
42246;SDS011;27913;42.722;23.268;2024-01-06T06:45:06;40.90;;;16.30;;
42246;SDS011;27913;42.722;23.268;2024-01-06T06:47:32;41.78;;;17.98;;
42246;SDS011;27913;42.722;23.268;2024-01-06T06:49:57;55.67;;;23.08;;
42246;SDS011;27913;42.722;23.268;2024-01-06T06:52:23;42.13;;;16.35;;
42246;SDS011;27913;42.722;23.268;2024-01-06T06:54:48;41.05;;;17.17;;
42246;SDS011;27913;42.722;23.268;2024-01-06T06:57:15;38.58;;;15.18;;
42246;SDS011;27913;42.722;23.268;2024-01-06T06:59:40;44.95;;;17.42;;
42246;SDS011;27913;42.722;23.268;2024-01-06T07:02:06;46.88;;;19.45;;
42246;SDS011;27913;42.722;23.268;2024-01-06T07:04:32;42.65;;;19.25;;
42246;SDS011;27913;42.722;23.268;2024-01-06T07:06:57;39.90;;;17.40;;
42246;SDS011;27913;42.722;23.268;2024-01-06T07:09:23;32.70;;;14.63;;
42246;SDS011;27913;42.722;23.268;2024-01-06T07:11:49;42.22;;;18.42;;
42246;SDS011;27913;42.722;23.268;2024-01-06T07:14:15;39.58;;;16.08;;
42246;SDS011;27913;42.722;23.268;2024-01-06T07:16:41;34.15;;;14.82;;
42246;SDS011;27913;42.722;23.268;2024-01-06T07:19:07;28.92;;;13.25;;
42246;SDS011;27913;42.722;23.268;2024-01-06T07:21:32;38.97;;;15.10;;
42246;SDS011;27913;42.722;23.268;2024-01-06T07:23:58;34.50;;;14.82;;
42246;SDS011;27913;42.722;23.268;2024-01-06T07:26:24;38.13;;;15.52;;
42246;SDS011;27913;42.722;23.268;2024-01-06T07:28:49;47.90;;;18.35;;
42246;SDS011;27913;42.722;23.268;2024-01-06T07:31:15;40.55;;;17.30;;
42246;SDS011;27913;42.722;23.268;2024-01-06T07:33:42;59.95;;;26.73;;
42246;SDS011;27913;42.722;23.268;2024-01-06T07:36:08;63.33;;;27.95;;
42246;SDS011;27913;42.722;23.268;2024-01-06T07:38:33;81.53;;;33.35;;
42246;SDS011;27913;42.722;23.268;2024-01-06T07:40:59;56.05;;;22.73;;
42246;SDS011;27913;42.722;23.268;2024-01-06T07:43:24;36.45;;;15.90;;
42246;SDS011;27913;42.722;23.268;2024-01-06T07:45:50;40.50;;;18.67;;
42246;SDS011;27913;42.722;23.268;2024-01-06T07:48:16;36.25;;;15.82;;
42246;SDS011;27913;42.722;23.268;2024-01-06T07:50:41;34.88;;;16.58;;
42246;SDS011;27913;42.722;23.268;2024-01-06T07:53:07;42.10;;;17.98;;
42246;SDS011;27913;42.722;23.268;2024-01-06T07:55:33;37.97;;;16.05;;
42246;SDS011;27913;42.722;23.268;2024-01-06T07:57:58;44.03;;;17.38;;
42246;SDS011;27913;42.722;23.268;2024-01-06T08:00:24;55.95;;;24.75;;
42246;SDS011;27913;42.722;23.268;2024-01-06T08:02:50;34.75;;;14.65;;
42246;SDS011;27913;42.722;23.268;2024-01-06T08:05:16;33.05;;;13.95;;
42246;SDS011;27913;42.722;23.268;2024-01-06T08:07:41;39.22;;;19.30;;
42246;SDS011;27913;42.722;23.268;2024-01-06T08:10:07;43.78;;;17.88;;
42246;SDS011;27913;42.722;23.268;2024-01-06T08:12:34;43.33;;;17.88;;
42246;SDS011;27913;42.722;23.268;2024-01-06T08:14:59;42.25;;;18.98;;
42246;SDS011;27913;42.722;23.268;2024-01-06T08:17:25;46.67;;;19.15;;
42246;SDS011;27913;42.722;23.268;2024-01-06T08:19:51;43.55;;;18.20;;
42246;SDS011;27913;42.722;23.268;2024-01-06T08:22:16;43.53;;;18.88;;
42246;SDS011;27913;42.722;23.268;2024-01-06T08:24:42;40.22;;;18.50;;
42246;SDS011;27913;42.722;23.268;2024-01-06T08:27:07;40.35;;;18.35;;
42246;SDS011;27913;42.722;23.268;2024-01-06T08:29:33;41.80;;;18.75;;
42246;SDS011;27913;42.722;23.268;2024-01-06T08:31:59;42.90;;;18.85;;
42246;SDS011;27913;42.722;23.268;2024-01-06T08:34:25;28.83;;;12.65;;
42246;SDS011;27913;42.722;23.268;2024-01-06T08:36:50;37.28;;;15.55;;
42246;SDS011;27913;42.722;23.268;2024-01-06T08:39:16;29.08;;;12.65;;
42246;SDS011;27913;42.722;23.268;2024-01-06T08:41:42;32.88;;;13.75;;
42246;SDS011;27913;42.722;23.268;2024-01-06T08:44:07;30.15;;;13.23;;
42246;SDS011;27913;42.722;23.268;2024-01-06T08:46:33;28.60;;;12.52;;
42246;SDS011;27913;42.722;23.268;2024-01-06T08:48:58;31.27;;;13.75;;
42246;SDS011;27913;42.722;23.268;2024-01-06T08:51:25;32.75;;;15.40;;
42246;SDS011;27913;42.722;23.268;2024-01-06T08:53:51;23.98;;;12.07;;
42246;SDS011;27913;42.722;23.268;2024-01-06T08:56:17;28.67;;;11.70;;
42246;SDS011;27913;42.722;23.268;2024-01-06T08:58:43;28.85;;;12.35;;
42246;SDS011;27913;42.722;23.268;2024-01-06T09:01:09;31.52;;;12.95;;
42246;SDS011;27913;42.722;23.268;2024-01-06T09:03:34;35.90;;;14.93;;
42246;SDS011;27913;42.722;23.268;2024-01-06T09:06:00;32.88;;;16.02;;
42246;SDS011;27913;42.722;23.268;2024-01-06T09:08:26;46.17;;;20.08;;
42246;SDS011;27913;42.722;23.268;2024-01-06T09:10:52;46.83;;;19.85;;
42246;SDS011;27913;42.722;23.268;2024-01-06T09:13:22;35.73;;;17.60;;
42246;SDS011;27913;42.722;23.268;2024-01-06T09:15:49;41.60;;;21.10;;
42246;SDS011;27913;42.722;23.268;2024-01-06T09:18:16;41.33;;;20.88;;
42246;SDS011;27913;42.722;23.268;2024-01-06T09:20:42;44.65;;;18.92;;
42246;SDS011;27913;42.722;23.268;2024-01-06T09:23:07;46.80;;;21.52;;
42246;SDS011;27913;42.722;23.268;2024-01-06T09:25:33;38.63;;;18.25;;
42246;SDS011;27913;42.722;23.268;2024-01-06T09:27:58;33.63;;;16.35;;
42246;SDS011;27913;42.722;23.268;2024-01-06T09:30:24;34.00;;;15.23;;
42246;SDS011;27913;42.722;23.268;2024-01-06T09:32:51;25.27;;;12.60;;
42246;SDS011;27913;42.722;23.268;2024-01-06T09:35:16;21.42;;;9.38;;
42246;SDS011;27913;42.722;23.268;2024-01-06T09:37:42;29.52;;;13.32;;
42246;SDS011;27913;42.722;23.268;2024-01-06T09:40:09;24.45;;;10.40;;
42246;SDS011;27913;42.722;23.268;2024-01-06T09:42:37;25.20;;;9.53;;
42246;SDS011;27913;42.722;23.268;2024-01-06T09:45:04;29.30;;;8.75;;
42246;SDS011;27913;42.722;23.268;2024-01-06T09:47:30;18.90;;;7.10;;
42246;SDS011;27913;42.722;23.268;2024-01-06T09:49:58;14.98;;;6.63;;
42246;SDS011;27913;42.722;23.268;2024-01-06T09:52:27;22.40;;;9.35;;
42246;SDS011;27913;42.722;23.268;2024-01-06T09:54:57;26.00;;;12.43;;
42246;SDS011;27913;42.722;23.268;2024-01-06T09:57:27;21.00;;;11.13;;
42246;SDS011;27913;42.722;23.268;2024-01-06T09:59:53;19.27;;;9.02;;
42246;SDS011;27913;42.722;23.268;2024-01-06T10:02:20;16.85;;;7.85;;
42246;SDS011;27913;42.722;23.268;2024-01-06T10:04:48;14.10;;;6.85;;
42246;SDS011;27913;42.722;23.268;2024-01-06T10:07:13;15.40;;;7.18;;
42246;SDS011;27913;42.722;23.268;2024-01-06T10:09:42;14.77;;;6.90;;
42246;SDS011;27913;42.722;23.268;2024-01-06T10:12:08;14.85;;;6.00;;
42246;SDS011;27913;42.722;23.268;2024-01-06T10:14:34;12.88;;;5.45;;
42246;SDS011;27913;42.722;23.268;2024-01-06T10:17:01;16.17;;;5.78;;
42246;SDS011;27913;42.722;23.268;2024-01-06T10:19:26;11.93;;;5.55;;
42246;SDS011;27913;42.722;23.268;2024-01-06T10:21:52;15.02;;;5.85;;
42246;SDS011;27913;42.722;23.268;2024-01-06T10:24:18;13.23;;;4.95;;
42246;SDS011;27913;42.722;23.268;2024-01-06T10:26:46;13.82;;;4.88;;
42246;SDS011;27913;42.722;23.268;2024-01-06T10:29:15;17.48;;;4.88;;
42246;SDS011;27913;42.722;23.268;2024-01-06T10:31:41;10.57;;;4.45;;
42246;SDS011;27913;42.722;23.268;2024-01-06T10:34:06;10.52;;;4.03;;
42246;SDS011;27913;42.722;23.268;2024-01-06T10:36:32;9.48;;;3.80;;
42246;SDS011;27913;42.722;23.268;2024-01-06T10:38:58;9.95;;;3.67;;
42246;SDS011;27913;42.722;23.268;2024-01-06T10:41:26;8.85;;;3.20;;
42246;SDS011;27913;42.722;23.268;2024-01-06T10:43:52;11.15;;;3.83;;
42246;SDS011;27913;42.722;23.268;2024-01-06T10:46:20;10.65;;;4.57;;
42246;SDS011;27913;42.722;23.268;2024-01-06T10:48:47;11.15;;;4.28;;
42246;SDS011;27913;42.722;23.268;2024-01-06T10:51:15;13.38;;;4.43;;
42246;SDS011;27913;42.722;23.268;2024-01-06T10:53:41;14.32;;;5.10;;
42246;SDS011;27913;42.722;23.268;2024-01-06T10:56:08;13.13;;;4.82;;
42246;SDS011;27913;42.722;23.268;2024-01-06T10:58:39;10.80;;;4.65;;
42246;SDS011;27913;42.722;23.268;2024-01-06T11:01:12;11.32;;;5.28;;
42246;SDS011;27913;42.722;23.268;2024-01-06T11:03:38;19.48;;;6.03;;
42246;SDS011;27913;42.722;23.268;2024-01-06T11:06:07;39.92;;;16.10;;
42246;SDS011;27913;42.722;23.268;2024-01-06T11:08:36;41.65;;;17.38;;
42246;SDS011;27913;42.722;23.268;2024-01-06T11:11:23;31.15;;;13.35;;
42246;SDS011;27913;42.722;23.268;2024-01-06T11:13:50;24.45;;;9.43;;
42246;SDS011;27913;42.722;23.268;2024-01-06T11:16:35;25.65;;;7.85;;
42246;SDS011;27913;42.722;23.268;2024-01-06T11:19:01;17.20;;;8.48;;
42246;SDS011;27913;42.722;23.268;2024-01-06T11:21:27;14.82;;;5.60;;
42246;SDS011;27913;42.722;23.268;2024-01-06T11:26:32;16.58;;;6.00;;
42246;SDS011;27913;42.722;23.268;2024-01-06T11:28:58;13.20;;;5.55;;
42246;SDS011;27913;42.722;23.268;2024-01-06T11:31:30;9.35;;;4.28;;
42246;SDS011;27913;42.722;23.268;2024-01-06T11:33:56;19.58;;;7.47;;
42246;SDS011;27913;42.722;23.268;2024-01-06T11:36:22;31.23;;;11.57;;
42246;SDS011;27913;42.722;23.268;2024-01-06T11:38:48;20.73;;;8.63;;
42246;SDS011;27913;42.722;23.268;2024-01-06T11:44:23;11.65;;;4.70;;
42246;SDS011;27913;42.722;23.268;2024-01-06T11:46:48;12.85;;;5.70;;
42246;SDS011;27913;42.722;23.268;2024-01-06T11:49:15;13.82;;;5.13;;
42246;SDS011;27913;42.722;23.268;2024-01-06T11:51:41;13.10;;;5.13;;
42246;SDS011;27913;42.722;23.268;2024-01-06T11:54:07;16.33;;;5.35;;
42246;SDS011;27913;42.722;23.268;2024-01-06T11:56:34;14.70;;;5.72;;
42246;SDS011;27913;42.722;23.268;2024-01-06T11:59:00;20.65;;;7.68;;
42246;SDS011;27913;42.722;23.268;2024-01-06T12:01:26;20.70;;;9.77;;
42246;SDS011;27913;42.722;23.268;2024-01-06T12:03:54;15.23;;;8.07;;
42246;SDS011;27913;42.722;23.268;2024-01-06T12:06:20;15.77;;;5.70;;
42246;SDS011;27913;42.722;23.268;2024-01-06T12:08:49;18.20;;;7.47;;
42246;SDS011;27913;42.722;23.268;2024-01-06T12:11:17;14.68;;;7.50;;
42246;SDS011;27913;42.722;23.268;2024-01-06T12:13:46;11.90;;;5.10;;
42246;SDS011;27913;42.722;23.268;2024-01-06T12:16:11;13.13;;;4.80;;
42246;SDS011;27913;42.722;23.268;2024-01-06T12:18:37;12.73;;;5.28;;
42246;SDS011;27913;42.722;23.268;2024-01-06T12:21:03;15.65;;;6.97;;
42246;SDS011;27913;42.722;23.268;2024-01-06T12:23:29;12.30;;;5.45;;
42246;SDS011;27913;42.722;23.268;2024-01-06T12:25:55;10.27;;;4.63;;
42246;SDS011;27913;42.722;23.268;2024-01-06T12:28:21;12.13;;;4.88;;
42246;SDS011;27913;42.722;23.268;2024-01-06T12:30:47;11.00;;;4.68;;
42246;SDS011;27913;42.722;23.268;2024-01-06T12:33:12;8.77;;;4.35;;
42246;SDS011;27913;42.722;23.268;2024-01-06T12:35:39;10.63;;;4.20;;
42246;SDS011;27913;42.722;23.268;2024-01-06T12:38:05;12.02;;;3.70;;
42246;SDS011;27913;42.722;23.268;2024-01-06T12:40:32;10.07;;;3.90;;
42246;SDS011;27913;42.722;23.268;2024-01-06T12:42:57;16.50;;;5.45;;
42246;SDS011;27913;42.722;23.268;2024-01-06T12:45:23;15.30;;;6.20;;
42246;SDS011;27913;42.722;23.268;2024-01-06T12:47:48;16.20;;;5.78;;
42246;SDS011;27913;42.722;23.268;2024-01-06T12:50:14;17.60;;;7.18;;
42246;SDS011;27913;42.722;23.268;2024-01-06T12:52:40;17.48;;;6.30;;
42246;SDS011;27913;42.722;23.268;2024-01-06T12:55:06;9.38;;;3.80;;
42246;SDS011;27913;42.722;23.268;2024-01-06T12:57:32;9.60;;;3.50;;
42246;SDS011;27913;42.722;23.268;2024-01-06T12:59:58;8.55;;;3.42;;
42246;SDS011;27913;42.722;23.268;2024-01-06T13:02:24;12.68;;;3.78;;
42246;SDS011;27913;42.722;23.268;2024-01-06T13:04:50;15.35;;;4.32;;
42246;SDS011;27913;42.722;23.268;2024-01-06T13:07:16;10.27;;;3.40;;
42246;SDS011;27913;42.722;23.268;2024-01-06T13:09:41;12.27;;;3.42;;
42246;SDS011;27913;42.722;23.268;2024-01-06T13:12:07;12.18;;;4.43;;
42246;SDS011;27913;42.722;23.268;2024-01-06T13:14:33;18.90;;;6.22;;
42246;SDS011;27913;42.722;23.268;2024-01-06T13:16:59;33.30;;;10.40;;
42246;SDS011;27913;42.722;23.268;2024-01-06T13:19:25;63.53;;;15.93;;
42246;SDS011;27913;42.722;23.268;2024-01-06T13:21:50;49.33;;;15.40;;
42246;SDS011;27913;42.722;23.268;2024-01-06T13:24:16;73.82;;;18.13;;
42246;SDS011;27913;42.722;23.268;2024-01-06T13:26:42;79.38;;;21.08;;
42246;SDS011;27913;42.722;23.268;2024-01-06T13:29:07;40.80;;;13.60;;
42246;SDS011;27913;42.722;23.268;2024-01-06T13:31:33;19.73;;;8.13;;
42246;SDS011;27913;42.722;23.268;2024-01-06T13:33:59;11.90;;;4.68;;
42246;SDS011;27913;42.722;23.268;2024-01-06T13:36:24;11.68;;;4.20;;
42246;SDS011;27913;42.722;23.268;2024-01-06T13:38:50;14.90;;;4.50;;
42246;SDS011;27913;42.722;23.268;2024-01-06T13:41:15;9.18;;;3.80;;
42246;SDS011;27913;42.722;23.268;2024-01-06T13:43:41;9.80;;;3.92;;
42246;SDS011;27913;42.722;23.268;2024-01-06T13:46:07;10.60;;;3.65;;
42246;SDS011;27913;42.722;23.268;2024-01-06T13:48:33;10.73;;;3.65;;
42246;SDS011;27913;42.722;23.268;2024-01-06T13:50:58;14.10;;;4.63;;
42246;SDS011;27913;42.722;23.268;2024-01-06T13:53:24;13.13;;;5.38;;
42246;SDS011;27913;42.722;23.268;2024-01-06T13:55:50;14.15;;;6.10;;
42246;SDS011;27913;42.722;23.268;2024-01-06T13:58:16;14.98;;;5.30;;
42246;SDS011;27913;42.722;23.268;2024-01-06T14:00:42;15.10;;;5.45;;
42246;SDS011;27913;42.722;23.268;2024-01-06T14:03:09;11.25;;;5.18;;
42246;SDS011;27913;42.722;23.268;2024-01-06T14:05:34;13.07;;;4.65;;
42246;SDS011;27913;42.722;23.268;2024-01-06T14:08:00;13.23;;;5.00;;
42246;SDS011;27913;42.722;23.268;2024-01-06T14:10:26;16.65;;;6.07;;
42246;SDS011;27913;42.722;23.268;2024-01-06T14:12:52;13.07;;;5.25;;
42246;SDS011;27913;42.722;23.268;2024-01-06T14:15:18;15.57;;;6.35;;